createdAt,value
2024-02-03T00:01:36.502Z,94430.91
2024-02-03T00:04:03.977Z,94425.81
2024-02-03T00:06:31.789Z,94432.34
2024-02-03T00:08:59.181Z,94422.13
2024-02-03T00:11:28.010Z,94421.75
2024-02-03T00:13:55.519Z,94421.56
2024-02-03T00:16:23.027Z,94423.81
2024-02-03T00:18:50.506Z,94424.19
2024-02-03T00:21:18.263Z,94429.25
2024-02-03T00:23:45.838Z,94428.28
2024-02-03T00:26:13.260Z,94432.81
2024-02-03T00:28:41.997Z,94430.34
2024-02-03T00:31:10.461Z,94430.81
2024-02-03T00:33:37.872Z,94440.94
2024-02-03T00:36:05.999Z,94429.16
2024-02-03T00:38:33.356Z,94427.72
2024-02-03T00:41:00.767Z,94423.84
2024-02-03T00:43:27.977Z,94432.34
2024-02-03T00:45:57.010Z,94427.34
2024-02-03T00:48:24.486Z,94428.44
2024-02-03T00:50:51.916Z,94416.66
2024-02-03T00:53:19.219Z,94412.13
2024-02-03T00:55:46.456Z,94407.75
2024-02-03T00:58:13.787Z,94401.38
2024-02-03T01:00:41.104Z,94406.25
2024-02-03T01:03:10.260Z,94402.19
2024-02-03T01:05:38.592Z,94400.28
2024-02-03T01:08:05.815Z,94396.41
2024-02-03T01:10:33.158Z,94399.75
2024-02-03T01:13:00.954Z,94408.00
2024-02-03T01:15:30.958Z,94402.75
2024-02-03T01:17:58.565Z,94401.31
2024-02-03T01:20:27.449Z,94391.78
2024-02-03T01:22:54.712Z,94395.50
2024-02-03T01:25:21.998Z,94392.00
2024-02-03T01:27:49.302Z,94391.78
2024-02-03T01:30:16.774Z,94390.00
2024-02-03T01:32:44.207Z,94387.72
2024-02-03T01:35:11.618Z,94386.66
2024-02-03T01:37:40.348Z,94386.09
2024-02-03T01:40:08.664Z,94386.72
2024-02-03T01:42:35.918Z,94383.91
2024-02-03T01:45:03.745Z,94391.41
2024-02-03T01:47:31.065Z,94391.41
2024-02-03T01:49:58.814Z,94383.44
2024-02-03T01:52:27.331Z,94368.84
2024-02-03T01:54:56.171Z,94356.91
2024-02-03T01:57:24.749Z,94356.72
2024-02-03T01:59:52.902Z,94352.53
2024-02-03T02:02:20.208Z,94346.66
2024-02-03T02:04:47.621Z,94342.13
2024-02-03T02:07:15.020Z,94336.13
2024-02-03T02:09:42.594Z,94340.31
2024-02-03T02:12:14.285Z,94337.03
2024-02-03T02:14:41.315Z,94336.09
2024-02-03T02:17:08.950Z,94334.81
2024-02-03T02:19:36.579Z,94342.81
2024-02-03T02:22:05.574Z,94339.66
2024-02-03T02:24:32.861Z,94329.50
2024-02-03T02:27:00.238Z,94326.34
2024-02-03T02:29:46.151Z,94330.69
2024-02-03T02:32:13.502Z,94327.63
2024-02-03T02:34:40.962Z,94331.97
2024-02-03T02:37:09.818Z,94330.97
2024-02-03T02:39:37.041Z,94332.78
2024-02-03T02:42:05.084Z,94336.41
2024-02-03T02:44:32.362Z,94329.53
2024-02-03T02:46:59.758Z,94334.50
2024-02-03T02:49:26.970Z,94332.78
2024-02-03T02:51:54.362Z,94324.09
2024-02-03T02:54:23.065Z,94317.56
2024-02-03T02:56:50.777Z,94318.38
2024-02-03T02:59:18.551Z,94328.50
2024-02-03T03:01:45.844Z,94322.56
2024-02-03T03:04:13.622Z,94302.81
2024-02-03T03:06:40.980Z,94296.94
2024-02-03T03:09:08.323Z,94296.84
2024-02-03T03:11:37.976Z,94300.19
2024-02-03T03:14:07.168Z,94297.94
2024-02-03T03:16:34.674Z,94304.91
2024-02-03T03:19:02.107Z,94303.19
2024-02-03T03:21:29.464Z,94294.75
2024-02-03T03:23:57.066Z,94298.84
2024-02-03T03:26:24.288Z,94294.50
2024-02-03T03:28:52.905Z,94295.56
2024-02-03T03:31:20.062Z,94297.41
2024-02-03T03:33:47.533Z,94297.03
2024-02-03T03:36:15.006Z,94294.03
2024-02-03T03:38:44.133Z,94294.22
2024-02-03T03:41:11.816Z,94285.88
2024-02-03T03:43:39.534Z,94292.22
2024-02-03T03:46:09.478Z,94291.44
2024-02-03T03:48:36.704Z,94300.84
2024-02-03T03:51:04.248Z,94277.84
2024-02-03T03:53:31.481Z,94294.31
2024-02-03T03:55:59.452Z,94288.63
2024-02-03T03:58:26.796Z,94294.59
2024-02-03T04:00:54.094Z,94288.69
2024-02-03T04:03:22.824Z,94288.69
2024-02-03T04:05:50.205Z,94286.41
2024-02-03T04:08:17.407Z,94288.13
2024-02-03T04:10:44.908Z,94289.78
2024-02-03T04:13:12.205Z,94287.06
2024-02-03T04:15:39.574Z,94274.59
2024-02-03T04:18:07.484Z,94271.63
2024-02-03T04:20:36.519Z,94269.09
2024-02-03T04:23:03.541Z,94271.91
2024-02-03T04:25:30.926Z,94266.28
2024-02-03T04:27:58.228Z,94254.94
2024-02-03T04:30:25.758Z,94257.16
2024-02-03T04:32:54.431Z,94264.53
2024-02-03T04:35:22.215Z,94268.78
2024-02-03T04:37:50.946Z,94268.66
2024-02-03T04:40:18.287Z,94268.84
2024-02-03T04:42:45.667Z,94270.47
2024-02-03T04:45:12.935Z,94267.06
2024-02-03T04:47:40.311Z,94270.22
2024-02-03T04:50:08.982Z,94272.38
2024-02-03T04:52:36.248Z,94277.72
2024-02-03T04:55:05.846Z,94290.22
2024-02-03T04:57:33.136Z,94276.19
2024-02-03T05:00:00.389Z,94279.72
2024-02-03T05:02:29.719Z,94282.22
2024-02-03T05:04:57.377Z,94282.69
2024-02-03T05:07:24.874Z,94286.09
2024-02-03T05:09:52.242Z,94293.34
2024-02-03T05:12:20.967Z,94293.25
2024-02-03T05:14:48.525Z,94290.19
2024-02-03T05:17:15.662Z,94298.59
2024-02-03T05:19:43.047Z,94314.59
2024-02-03T05:22:10.633Z,94305.84
2024-02-03T05:24:38.797Z,94315.63
2024-02-03T05:27:06.100Z,94312.53
2024-02-03T05:29:34.696Z,94319.88
2024-02-03T05:32:01.905Z,94311.28
2024-02-03T05:34:29.225Z,94315.34
2024-02-03T05:36:56.792Z,94302.69
2024-02-03T05:39:24.044Z,94297.25
2024-02-03T05:41:51.222Z,94299.53
2024-02-03T05:44:19.383Z,94292.81
2024-02-03T05:46:48.088Z,94288.09
2024-02-03T05:49:15.313Z,94299.69
2024-02-03T05:51:42.748Z,94292.19
2024-02-03T05:54:10.161Z,94286.38
2024-02-03T05:56:38.850Z,94280.34
2024-02-03T05:59:21.399Z,94280.25
2024-02-03T06:01:54.692Z,94276.50
2024-02-03T06:04:22.112Z,94274.44
2024-02-03T06:06:49.606Z,94277.59
2024-02-03T06:09:17.038Z,94285.84
2024-02-03T06:11:44.300Z,94285.56
2024-02-03T06:14:11.527Z,94278.94
2024-02-03T06:16:38.829Z,94280.66
2024-02-03T06:19:07.602Z,94284.28
2024-02-03T06:21:34.673Z,94283.28
2024-02-03T06:24:03.022Z,94284.94
2024-02-03T06:26:32.033Z,94274.72
2024-02-03T06:28:59.422Z,94279.53
2024-02-03T06:31:26.675Z,94290.00
2024-02-03T06:33:54.092Z,94290.81
2024-02-03T06:36:23.054Z,94286.28
2024-02-03T06:38:50.209Z,94293.25
2024-02-03T06:41:19.508Z,94289.16
2024-02-03T06:43:46.802Z,94294.66
2024-02-03T06:46:14.044Z,94297.53
2024-02-03T06:48:41.454Z,94292.31
2024-02-03T06:51:08.885Z,94295.16
2024-02-03T06:53:37.565Z,94300.94
2024-02-03T06:56:05.456Z,94294.00
2024-02-03T06:58:33.491Z,94292.38
2024-02-03T07:01:03.642Z,94293.53
2024-02-03T07:03:32.182Z,94298.63
2024-02-03T07:05:59.445Z,94304.16
2024-02-03T07:08:26.641Z,94313.19
2024-02-03T07:10:55.684Z,94313.09
2024-02-03T07:13:23.731Z,94313.53
2024-02-03T07:15:51.471Z,94306.81
2024-02-03T07:18:19.905Z,94319.31
2024-02-03T07:20:47.270Z,94319.72
2024-02-03T07:23:14.489Z,94310.19
2024-02-03T07:25:41.883Z,94318.06
2024-02-03T07:28:10.507Z,94323.88
2024-02-03T07:30:37.961Z,94326.53
2024-02-03T07:33:08.089Z,94323.09
2024-02-03T07:35:35.616Z,94313.97
2024-02-03T07:38:03.391Z,94301.97
2024-02-03T07:40:30.635Z,94294.56
2024-02-03T07:42:57.836Z,94289.97
2024-02-03T07:45:26.554Z,94289.88
2024-02-03T07:47:54.108Z,94284.53
2024-02-03T07:50:22.610Z,94291.13
2024-02-03T07:52:49.934Z,94291.84
2024-02-03T07:55:17.679Z,94287.53
2024-02-03T07:57:47.848Z,94294.78
2024-02-03T08:00:17.956Z,94286.22
2024-02-03T08:02:46.670Z,94283.13
2024-02-03T08:05:13.666Z,94278.88
2024-02-03T08:07:41.576Z,94272.88
2024-02-03T08:10:09.641Z,94282.06
2024-02-03T08:12:36.980Z,94291.44
2024-02-03T08:15:04.869Z,94289.59
2024-02-03T08:17:32.259Z,94283.13
2024-02-03T08:20:00.954Z,94287.41
2024-02-03T08:22:28.055Z,94287.19
2024-02-03T08:24:55.573Z,94292.66
2024-02-03T08:27:22.976Z,94285.56
2024-02-03T08:29:50.184Z,94285.25
2024-02-03T08:32:17.420Z,94283.63
2024-02-03T08:37:16.891Z,94275.63
2024-02-03T08:42:16.358Z,94271.56
2024-02-03T08:44:43.940Z,94264.28
2024-02-03T08:47:11.279Z,94265.66
2024-02-03T08:49:38.697Z,94272.38
2024-02-03T08:52:06.900Z,94265.56
2024-02-03T08:54:35.490Z,94257.66
2024-02-03T08:57:03.167Z,94251.53
2024-02-03T08:59:30.471Z,94257.31
2024-02-03T09:01:57.639Z,94275.28
2024-02-03T09:04:24.976Z,94271.94
2024-02-03T09:06:52.747Z,94270.53
2024-02-03T09:09:20.055Z,94278.31
2024-02-03T09:11:48.785Z,94260.81
2024-02-03T09:14:15.930Z,94278.19
2024-02-03T09:16:43.337Z,94274.34
2024-02-03T09:19:10.617Z,94279.34
2024-02-03T09:21:37.948Z,94274.44
2024-02-03T09:24:05.572Z,94283.72
2024-02-03T09:26:32.745Z,94272.72
2024-02-03T09:29:01.437Z,94280.00
2024-02-03T09:31:30.132Z,94281.88
2024-02-03T09:33:57.993Z,94276.44
2024-02-03T09:36:25.310Z,94278.16
2024-02-03T09:38:52.537Z,94276.22
2024-02-03T09:41:19.762Z,94268.41
2024-02-03T09:43:49.622Z,94258.19
2024-02-03T09:46:19.021Z,94259.69
2024-02-03T09:48:46.603Z,94250.50
2024-02-03T09:51:14.012Z,94248.50
2024-02-03T09:53:41.214Z,94249.16
2024-02-03T09:56:08.508Z,94242.25
2024-02-03T09:58:35.864Z,94237.56
2024-02-03T10:01:03.632Z,94247.03
2024-02-03T10:03:33.960Z,94240.25
2024-02-03T10:06:02.931Z,94236.53
2024-02-03T10:08:30.748Z,94234.03
2024-02-03T10:10:58.303Z,94235.75
2024-02-03T10:13:25.841Z,94227.00
2024-02-03T10:16:02.985Z,94226.00
2024-02-03T10:18:35.104Z,94222.78
2024-02-03T10:21:03.203Z,94221.97
2024-02-03T10:23:31.549Z,94225.34
2024-02-03T10:25:59.371Z,94218.75
2024-02-03T10:28:26.989Z,94206.50
2024-02-03T10:30:59.700Z,94212.69
2024-02-03T10:33:29.024Z,94204.59
2024-02-03T10:35:58.466Z,94210.00
2024-02-03T10:38:25.721Z,94213.16
2024-02-03T10:40:52.865Z,94196.41
2024-02-03T10:43:23.960Z,94192.81
2024-02-03T10:45:56.577Z,94188.81
2024-02-03T10:48:27.147Z,94190.41
2024-02-03T10:50:58.001Z,94193.22
2024-02-03T10:53:31.405Z,94188.50
2024-02-03T10:56:02.237Z,94178.47
2024-02-03T10:58:30.358Z,94169.47
2024-02-03T11:01:00.747Z,94167.72
2024-02-03T11:03:31.340Z,94169.22
2024-02-03T11:06:05.350Z,94163.94
2024-02-03T11:08:33.435Z,94157.09
2024-02-03T11:11:01.276Z,94153.19
2024-02-03T11:13:28.667Z,94162.22
2024-02-03T11:15:59.415Z,94150.66
2024-02-03T11:18:28.609Z,94158.63
2024-02-03T11:21:05.903Z,94152.19
2024-02-03T11:23:33.766Z,94150.03
2024-02-03T11:26:01.062Z,94154.47
2024-02-03T11:28:31.887Z,94146.28
2024-02-03T11:31:02.484Z,94134.84
2024-02-03T11:33:32.928Z,94131.53
2024-02-03T11:36:00.775Z,94139.69
2024-02-03T11:38:29.453Z,94133.72
2024-02-03T11:41:00.923Z,94125.78
2024-02-03T11:43:29.529Z,94138.63
2024-02-03T11:46:00.434Z,94124.13
2024-02-03T11:48:28.549Z,94110.00
2024-02-03T11:50:55.795Z,94106.88
2024-02-03T11:53:25.123Z,94103.16
2024-02-03T11:55:55.294Z,94084.03
2024-02-03T11:58:22.791Z,94088.88
2024-02-03T12:01:00.919Z,94086.84
2024-02-03T12:03:28.175Z,94080.06
2024-02-03T12:05:55.770Z,94076.13
2024-02-03T12:08:23.374Z,94069.63
2024-02-03T12:10:50.679Z,94062.63
2024-02-03T12:13:19.518Z,94055.00
2024-02-03T12:15:46.896Z,94049.00
2024-02-03T12:18:14.516Z,94046.06
2024-02-03T12:20:41.900Z,94037.19
2024-02-03T12:23:13.331Z,94045.69
2024-02-03T12:25:44.397Z,94041.59
2024-02-03T12:28:12.644Z,94041.97
2024-02-03T12:30:41.335Z,94036.00
2024-02-03T12:33:09.446Z,94027.22
2024-02-03T12:35:37.126Z,94024.72
2024-02-03T12:38:04.694Z,94033.28
2024-02-03T12:40:31.915Z,94022.19
2024-02-03T12:42:59.442Z,94021.34
2024-02-03T12:45:26.714Z,94033.59
2024-02-03T12:47:55.632Z,94025.53
2024-02-03T12:50:23.805Z,94019.53
2024-02-03T12:52:51.881Z,94018.84
2024-02-03T12:55:19.686Z,94036.03
2024-02-03T12:57:47.219Z,94039.97
2024-02-03T13:00:15.663Z,94036.44
2024-02-03T13:02:42.929Z,94037.13
2024-02-03T13:05:14.021Z,94039.81
2024-02-03T13:07:42.675Z,94043.13
2024-02-03T13:10:10.081Z,94034.88
2024-02-03T13:12:37.476Z,94041.44
2024-02-03T13:15:05.771Z,94025.97
2024-02-03T13:17:33.019Z,94033.06
2024-02-03T13:20:00.662Z,94041.88
2024-02-03T13:22:29.493Z,94041.84
2024-02-03T13:24:57.129Z,94037.66
2024-02-03T13:27:24.668Z,94037.53
2024-02-03T13:29:52.146Z,94037.94
2024-02-03T13:32:21.880Z,94044.56
2024-02-03T13:34:50.757Z,94039.84
2024-02-03T13:37:18.163Z,94048.44
2024-02-03T13:39:47.418Z,94028.34
2024-02-03T13:42:16.463Z,94023.25
2024-02-03T13:44:43.922Z,94028.25
2024-02-03T13:47:11.201Z,94025.19
2024-02-03T13:49:38.963Z,94017.94
2024-02-03T13:52:06.922Z,94012.63
2024-02-03T13:54:34.301Z,94014.66
2024-02-03T13:57:03.131Z,94012.47
2024-02-03T13:59:31.144Z,94007.38
2024-02-03T14:01:58.469Z,94002.66
2024-02-03T14:04:25.807Z,93999.00
2024-02-03T14:06:53.057Z,93989.22
2024-02-03T14:09:20.506Z,93988.25
2024-02-03T14:11:54.423Z,93990.91
2024-02-03T14:14:24.151Z,93998.47
2024-02-03T14:16:51.744Z,93991.28
2024-02-03T14:19:19.362Z,93990.97
2024-02-03T14:21:47.181Z,93981.88
2024-02-03T14:24:14.712Z,94008.94
2024-02-03T14:26:42.184Z,93990.63
2024-02-03T14:29:10.926Z,93980.41
2024-02-03T14:31:39.478Z,93968.47
2024-02-03T14:34:06.503Z,93976.41
2024-02-03T14:36:33.959Z,93990.47
2024-02-03T14:39:01.267Z,93968.00
2024-02-03T14:41:28.498Z,93976.06
2024-02-03T14:43:55.715Z,93962.50
2024-02-03T14:46:23.129Z,93980.56
2024-02-03T14:48:52.283Z,93980.81
2024-02-03T14:51:19.884Z,93962.88
2024-02-03T14:53:47.127Z,93973.41
2024-02-03T14:56:14.537Z,93975.03
2024-02-03T14:58:41.786Z,93977.91
2024-02-03T15:01:09.273Z,93980.16
2024-02-03T15:03:36.481Z,93968.19
2024-02-03T15:06:06.080Z,93973.28
2024-02-03T15:08:34.915Z,93975.19
2024-02-03T15:11:02.446Z,93982.88
2024-02-03T15:13:29.703Z,93978.41
2024-02-03T15:15:57.041Z,93983.81
2024-02-03T15:18:24.270Z,93981.91
2024-02-03T15:20:51.664Z,93978.28
2024-02-03T15:23:20.292Z,93972.78
2024-02-03T15:25:47.676Z,93973.88
2024-02-03T15:28:14.947Z,93979.94
2024-02-03T15:30:42.220Z,93963.13
2024-02-03T15:33:09.563Z,93974.44
2024-02-03T15:35:36.995Z,93971.75
2024-02-03T15:38:04.967Z,93970.28
2024-02-03T15:40:33.933Z,93957.09
2024-02-03T15:43:01.295Z,93964.91
2024-02-03T15:45:29.030Z,93962.34
2024-02-03T15:47:56.775Z,93962.50
2024-02-03T15:50:24.302Z,93968.13
2024-02-03T15:52:51.832Z,93982.25
2024-02-03T15:55:19.397Z,93967.59
2024-02-03T15:57:48.227Z,93969.19
2024-02-03T16:00:18.991Z,93962.34
2024-02-03T16:02:47.917Z,93961.91
2024-02-03T16:05:15.779Z,93963.53
2024-02-03T16:07:43.697Z,93974.84
2024-02-03T16:10:14.286Z,93969.84
2024-02-03T16:12:42.573Z,93974.31
2024-02-03T16:15:13.859Z,93994.69
2024-02-03T16:17:41.534Z,93992.25
2024-02-03T16:20:12.634Z,93999.22
2024-02-03T16:22:42.340Z,93991.41
2024-02-03T16:25:10.338Z,94005.31
2024-02-03T16:27:37.781Z,94020.94
2024-02-03T16:30:07.503Z,94008.66
2024-02-03T16:32:36.382Z,94006.09
2024-02-03T16:35:04.822Z,94003.13
2024-02-03T16:37:32.576Z,93996.41
2024-02-03T16:40:00.106Z,93999.22
2024-02-03T16:42:27.760Z,94007.06
2024-02-03T16:44:55.331Z,94003.28
2024-02-03T16:47:22.821Z,93998.81
2024-02-03T16:49:51.813Z,93991.81
2024-02-03T16:52:19.260Z,94010.41
2024-02-03T16:54:46.720Z,94017.81
2024-02-03T16:57:14.154Z,94008.78
2024-02-03T16:59:41.691Z,93996.78
2024-02-03T17:02:09.188Z,94001.38
2024-02-03T17:04:39.363Z,94008.78
2024-02-03T17:07:08.290Z,94009.22
2024-02-03T17:09:35.829Z,94043.44
2024-02-03T17:12:03.373Z,94023.75
2024-02-03T17:14:30.786Z,94012.03
2024-02-03T17:16:58.247Z,94021.19
2024-02-03T17:19:25.729Z,94013.00
2024-02-03T17:21:58.481Z,94019.19
2024-02-03T17:24:27.592Z,94019.72
2024-02-03T17:26:54.975Z,94011.91
2024-02-03T17:29:22.651Z,94016.34
2024-02-03T17:31:51.798Z,94028.75
2024-02-03T17:34:19.288Z,94021.22
2024-02-03T17:36:46.789Z,94016.34
2024-02-03T17:39:14.210Z,94025.13
2024-02-03T17:41:44.760Z,94032.13
2024-02-03T17:44:12.251Z,94029.31
2024-02-03T17:46:39.636Z,94019.88
2024-02-03T17:49:09.378Z,94032.13
2024-02-03T17:51:37.026Z,94025.78
2024-02-03T17:54:05.422Z,94021.47
2024-02-03T17:56:32.934Z,94033.63
2024-02-03T17:59:01.670Z,94028.34
2024-02-03T18:01:29.159Z,94035.09
2024-02-03T18:03:58.331Z,94039.28
2024-02-03T18:06:25.928Z,94031.59
2024-02-03T18:08:53.381Z,94043.31
2024-02-03T18:11:23.819Z,94046.81
2024-02-03T18:13:56.098Z,94045.72
2024-02-03T18:16:25.281Z,94042.38
2024-02-03T18:18:52.739Z,94034.16
2024-02-03T18:21:22.297Z,94038.59
2024-02-03T18:23:49.777Z,94034.44
2024-02-03T18:26:26.041Z,94036.44
2024-02-03T18:28:56.465Z,94038.47
2024-02-03T18:31:27.865Z,94028.75
2024-02-03T18:33:59.148Z,94039.56
2024-02-03T18:36:26.868Z,94043.19
2024-02-03T18:38:54.346Z,94055.31
2024-02-03T18:41:21.973Z,94052.63
2024-02-03T18:43:49.331Z,94058.00
2024-02-03T18:46:16.814Z,94051.28
2024-02-03T18:48:47.355Z,94052.91
2024-02-03T18:51:15.117Z,94054.63
2024-02-03T18:53:42.327Z,94056.25
2024-02-03T18:56:10.533Z,94071.88
2024-02-03T18:58:39.268Z,94056.78
2024-02-03T19:01:06.757Z,94046.56
2024-02-03T19:03:34.338Z,94060.69
2024-02-03T19:06:03.193Z,94065.41
2024-02-03T19:08:34.195Z,94056.66
2024-02-03T19:11:01.505Z,94067.97
2024-02-03T19:13:28.764Z,94071.75
2024-02-03T19:15:56.083Z,94069.31
2024-02-03T19:18:25.145Z,94074.44
2024-02-03T19:20:52.581Z,94074.31
2024-02-03T19:23:21.445Z,94075.25
2024-02-03T19:25:52.015Z,94068.13
2024-02-03T19:28:20.502Z,94070.00
2024-02-03T19:30:47.711Z,94076.22
2024-02-03T19:33:15.090Z,94070.28
2024-02-03T19:35:43.800Z,94085.34
2024-02-03T19:38:10.795Z,94071.75
2024-02-03T19:40:42.612Z,94081.84
2024-02-03T19:43:09.950Z,94089.38
2024-02-03T19:45:38.051Z,94094.38
2024-02-03T19:48:06.200Z,94083.47
2024-02-03T19:50:33.558Z,94101.63
2024-02-03T19:53:06.311Z,94087.78
2024-02-03T19:55:33.982Z,94092.75
2024-02-03T19:58:02.742Z,94078.09
2024-02-03T20:00:30.018Z,94083.47
2024-02-03T20:02:57.424Z,94088.72
2024-02-03T20:05:24.984Z,94095.47
2024-02-03T20:07:52.388Z,94090.88
2024-02-03T20:10:22.050Z,94098.56
2024-02-03T20:12:49.454Z,94096.28
2024-02-03T20:15:18.563Z,94095.19
2024-02-03T20:17:45.829Z,94095.31
2024-02-03T20:20:13.404Z,94091.00
2024-02-03T20:22:40.664Z,94089.53
2024-02-03T20:25:08.655Z,94102.31
2024-02-03T20:27:37.521Z,94108.66
2024-02-03T20:30:05.396Z,94090.59
2024-02-03T20:32:34.116Z,94092.91
2024-02-03T20:35:01.840Z,94090.34
2024-02-03T20:37:29.163Z,94091.00
2024-02-03T20:39:57.052Z,94091.16
2024-02-03T20:42:24.530Z,94095.59
2024-02-03T20:44:52.295Z,94092.91
2024-02-03T20:47:19.660Z,94089.00
2024-02-03T20:49:48.457Z,94092.09
2024-02-03T20:52:15.844Z,94091.56
2024-02-03T20:54:43.109Z,94095.19
2024-02-03T20:57:11.645Z,94086.69
2024-02-03T20:59:38.849Z,94095.19
2024-02-03T21:02:06.755Z,94086.69
2024-02-03T21:04:34.102Z,94082.38
2024-02-03T21:07:04.838Z,94092.09
2024-02-03T21:09:32.280Z,94103.94
2024-02-03T21:11:59.488Z,94104.47
2024-02-03T21:14:26.735Z,94091.00
2024-02-03T21:16:54.045Z,94095.31
2024-02-03T21:19:21.429Z,94090.59
2024-02-03T21:21:48.838Z,94087.50
2024-02-03T21:24:17.782Z,94090.75
2024-02-03T21:26:45.946Z,94088.31
2024-02-03T21:29:13.300Z,94090.88
2024-02-03T21:31:40.501Z,94083.47
2024-02-03T21:34:08.041Z,94090.31
2024-02-03T21:36:35.391Z,94081.56
2024-02-03T21:39:04.565Z,94087.09
2024-02-03T21:41:33.372Z,94096.78
2024-02-03T21:44:00.678Z,94096.63
2024-02-03T21:46:28.173Z,94076.31
2024-02-03T21:48:55.695Z,94081.28
2024-02-03T21:51:23.747Z,94075.22
2024-02-03T21:53:51.051Z,94090.56
2024-02-03T21:56:19.276Z,94076.31
2024-02-03T21:58:48.240Z,94080.50
2024-02-03T22:01:15.621Z,94090.97
2024-02-03T22:03:43.214Z,94080.50
2024-02-03T22:06:10.730Z,94075.50
2024-02-03T22:08:38.208Z,94083.31
2024-02-03T22:11:06.079Z,94091.09
2024-02-03T22:13:34.206Z,94087.19
2024-02-03T22:16:02.925Z,94086.38
2024-02-03T22:18:30.449Z,94081.13
2024-02-03T22:20:57.822Z,94071.72
2024-02-03T22:23:26.291Z,94083.03
2024-02-03T22:25:53.593Z,94067.53
2024-02-03T22:28:20.960Z,94063.75
2024-02-03T22:30:48.456Z,94063.38
2024-02-03T22:33:17.440Z,94058.41
2024-02-03T22:35:44.790Z,94056.78
2024-02-03T22:38:11.981Z,94067.81
2024-02-03T22:40:39.249Z,94065.91
2024-02-03T22:43:06.971Z,94050.31
2024-02-03T22:45:34.196Z,94049.78
2024-02-03T22:48:01.884Z,94055.56
2024-02-03T22:50:31.475Z,94046.53
2024-02-03T22:52:58.785Z,94053.81
2024-02-03T22:55:27.484Z,94050.56
2024-02-03T22:57:54.707Z,94051.53
2024-02-03T23:00:34.027Z,94039.56
2024-02-03T23:03:01.501Z,94047.09
2024-02-03T23:05:30.218Z,94038.34
2024-02-03T23:07:57.421Z,94042.38
2024-02-03T23:10:25.279Z,94041.72
2024-02-03T23:12:53.743Z,94043.31
2024-02-03T23:15:21.110Z,94040.91
2024-02-03T23:17:48.507Z,94033.34
2024-02-03T23:20:20.220Z,94049.38
2024-02-03T23:22:49.365Z,94037.25
2024-02-03T23:25:17.589Z,94033.88
2024-02-03T23:27:44.997Z,94034.44
2024-02-03T23:30:13.024Z,94038.06
2024-02-03T23:32:40.508Z,94045.88
2024-02-03T23:35:08.794Z,94029.06
2024-02-03T23:37:36.374Z,94027.97
2024-02-03T23:40:08.098Z,94012.50
2024-02-03T23:42:35.496Z,94030.28
2024-02-03T23:45:03.042Z,94035.38
2024-02-03T23:47:30.369Z,94049.00
2024-02-03T23:49:57.787Z,94018.69
2024-02-03T23:52:25.121Z,94034.06
2024-02-03T23:54:52.406Z,94040.09
2024-02-03T23:57:21.293Z,94030.00
2024-02-03T23:59:49.275Z,94044.41
